createdAt,value
2022-12-08T00:02:05.847Z,99298.50
2022-12-08T00:04:53.774Z,99300.16
2022-12-08T00:07:39.038Z,99299.22
2022-12-08T00:10:25.279Z,99288.69
2022-12-08T00:12:54.655Z,99286.03
2022-12-08T00:15:24.849Z,99283.41
2022-12-08T00:17:52.526Z,99275.50
2022-12-08T00:20:20.136Z,99272.84
2022-12-08T00:22:48.308Z,99272.13
2022-12-08T00:25:16.390Z,99266.84
2022-12-08T00:27:46.864Z,99265.91
2022-12-08T00:30:14.685Z,99263.25
2022-12-08T00:32:42.315Z,99264.94
2022-12-08T00:35:09.937Z,99266.63
2022-12-08T00:37:38.105Z,99269.19
2022-12-08T00:40:07.350Z,99261.19
2022-12-08T00:42:34.994Z,99259.28
2022-12-08T00:45:02.932Z,99256.53
2022-12-08T00:47:30.533Z,99253.78
2022-12-08T00:49:58.517Z,99257.28
2022-12-08T00:52:26.172Z,99244.97
2022-12-08T00:54:53.770Z,99252.75
2022-12-08T00:57:21.380Z,99250.22
2022-12-08T00:59:49.033Z,99244.97
2022-12-08T01:02:16.971Z,99250.22
2022-12-08T01:04:44.625Z,99242.19
2022-12-08T01:07:12.259Z,99240.50
2022-12-08T01:09:39.835Z,99236.91
2022-12-08T01:12:07.437Z,99234.41
2022-12-08T01:14:35.415Z,99239.69
2022-12-08T01:17:03.648Z,99238.81
2022-12-08T01:19:31.420Z,99232.69
2022-12-08T01:21:59.075Z,99235.31
2022-12-08T01:24:26.664Z,99234.59
2022-12-08T01:26:55.051Z,99231.97
2022-12-08T01:29:25.616Z,99238.19
2022-12-08T01:31:53.165Z,99225.09
2022-12-08T01:34:20.785Z,99235.53
2022-12-08T01:36:48.417Z,99234.81
2022-12-08T01:39:16.419Z,99235.63
2022-12-08T01:41:44.021Z,99240.91
2022-12-08T01:44:11.863Z,99233.97
2022-12-08T01:46:39.607Z,99241.88
2022-12-08T01:49:07.243Z,99234.81
2022-12-08T01:51:35.224Z,99232.19
2022-12-08T01:54:02.803Z,99233.88
2022-12-08T01:56:30.383Z,99230.28
2022-12-08T01:58:58.021Z,99227.53
2022-12-08T02:01:25.767Z,99225.72
2022-12-08T02:03:53.436Z,99222.16
2022-12-08T02:06:21.670Z,99226.50
2022-12-08T02:08:49.954Z,99218.59
2022-12-08T02:11:17.552Z,99232.50
2022-12-08T02:13:45.197Z,99221.97
2022-12-08T02:16:13.050Z,99215.94
2022-12-08T02:18:41.184Z,99207.19
2022-12-08T02:21:08.835Z,99214.22
2022-12-08T02:23:36.439Z,99212.56
2022-12-08T02:26:04.076Z,99208.97
2022-12-08T02:28:32.126Z,99210.78
2022-12-08T02:31:00.166Z,99202.13
2022-12-08T02:33:27.812Z,99201.28
2022-12-08T02:35:55.475Z,99196.22
2022-12-08T02:38:23.037Z,99189.44
2022-12-08T02:40:50.990Z,99190.72
2022-12-08T02:43:20.172Z,99192.72
2022-12-08T02:45:47.788Z,99187.66
2022-12-08T02:48:15.384Z,99182.47
2022-12-08T02:50:43.052Z,99175.53
2022-12-08T02:55:40.635Z,99174.66
2022-12-08T02:58:08.297Z,99173.72
2022-12-08T03:00:35.947Z,99173.63
2022-12-08T03:03:03.632Z,99161.31
2022-12-08T03:05:31.306Z,99156.75
2022-12-08T03:08:00.817Z,99158.44
2022-12-08T03:10:28.466Z,99140.00
2022-12-08T03:12:56.058Z,99156.53
2022-12-08T03:15:24.133Z,99145.06
2022-12-08T03:17:51.700Z,99149.38
2022-12-08T03:20:19.642Z,99140.53
2022-12-08T03:22:47.243Z,99129.03
2022-12-08T03:25:14.827Z,99138.63
2022-12-08T03:27:42.431Z,99116.59
2022-12-08T03:30:09.980Z,99130.50
2022-12-08T03:32:37.570Z,99119.97
2022-12-08T03:35:05.204Z,99124.28
2022-12-08T03:37:32.783Z,99119.00
2022-12-08T03:40:00.342Z,99122.41
2022-12-08T03:42:27.946Z,99115.44
2022-12-08T03:44:56.573Z,99118.81
2022-12-08T03:47:24.468Z,99110.81
2022-12-08T03:49:52.082Z,99106.38
2022-12-08T03:52:19.667Z,99103.72
2022-12-08T03:54:47.276Z,99096.66
2022-12-08T03:57:15.275Z,99089.59
2022-12-08T03:59:42.898Z,99086.84
2022-12-08T04:02:10.544Z,99079.78
2022-12-08T04:04:38.189Z,99080.72
2022-12-08T04:07:05.795Z,99070.19
2022-12-08T04:09:33.453Z,99077.25
2022-12-08T04:12:01.446Z,99079.03
2022-12-08T04:14:29.283Z,99075.59
2022-12-08T04:16:56.875Z,99078.31
2022-12-08T04:19:24.784Z,99069.53
2022-12-08T04:21:53.583Z,99067.03
2022-12-08T04:24:21.522Z,99066.28
2022-12-08T04:26:49.879Z,99064.72
2022-12-08T04:29:17.440Z,99063.00
2022-12-08T04:31:45.123Z,99066.72
2022-12-08T04:34:12.814Z,99062.50
2022-12-08T04:36:40.767Z,99063.56
2022-12-08T04:39:08.420Z,99057.56
2022-12-08T04:41:36.401Z,99050.59
2022-12-08T04:44:03.995Z,99057.75
2022-12-08T04:46:34.526Z,99054.47
2022-12-08T04:49:03.897Z,99053.66
2022-12-08T04:51:31.452Z,99050.28
2022-12-08T04:53:59.022Z,99057.44
2022-12-08T04:56:26.700Z,99058.41
2022-12-08T04:58:54.387Z,99055.84
2022-12-08T05:01:22.400Z,99060.41
2022-12-08T05:03:50.555Z,99051.66
2022-12-08T05:06:18.147Z,99044.69
2022-12-08T05:08:45.741Z,99051.75
2022-12-08T05:11:15.716Z,99049.22
2022-12-08T05:13:43.724Z,99047.53
2022-12-08T05:16:11.372Z,99043.13
2022-12-08T05:18:39.151Z,99047.53
2022-12-08T05:21:06.748Z,99047.63
2022-12-08T05:23:35.758Z,99048.59
2022-12-08T05:26:04.151Z,99045.22
2022-12-08T05:28:47.104Z,99044.38
2022-12-08T05:31:14.774Z,99043.53
2022-12-08T05:33:44.573Z,99036.59
2022-12-08T05:36:12.520Z,99036.59
2022-12-08T05:38:40.243Z,99033.09
2022-12-08T05:41:07.818Z,99030.47
2022-12-08T05:43:35.387Z,99027.09
2022-12-08T05:46:04.312Z,99031.63
2022-12-08T05:48:31.914Z,99033.63
2022-12-08T05:50:59.487Z,99018.88
2022-12-08T05:53:27.132Z,99025.09
2022-12-08T05:55:54.709Z,99015.72
2022-12-08T06:01:07.726Z,99009.81
2022-12-08T06:03:35.442Z,99005.50
2022-12-08T06:06:03.099Z,99003.72
2022-12-08T06:08:31.476Z,99002.00
2022-12-08T06:10:59.505Z,98999.38
2022-12-08T06:13:27.151Z,98999.38
2022-12-08T06:15:54.818Z,98996.00
2022-12-08T06:18:22.402Z,98997.81
2022-12-08T06:20:50.032Z,99000.44
2022-12-08T06:23:18.270Z,98999.69
2022-12-08T06:25:45.949Z,99005.81
2022-12-08T06:28:13.872Z,98994.41
2022-12-08T06:30:41.642Z,98998.84
2022-12-08T06:33:09.310Z,99000.53
2022-12-08T06:35:36.908Z,99001.50
2022-12-08T06:38:04.663Z,98999.81
2022-12-08T06:40:32.271Z,98997.19
2022-12-08T06:42:59.869Z,98998.84
2022-12-08T06:45:28.482Z,98998.84
2022-12-08T06:47:56.457Z,98996.09
2022-12-08T06:50:24.357Z,99003.16
2022-12-08T06:53:01.054Z,98997.91
2022-12-08T06:55:57.995Z,98994.41
2022-12-08T06:58:20.670Z,98999.59
2022-12-08T07:00:48.310Z,99002.22
2022-12-08T07:03:16.081Z,99003.16
2022-12-08T07:05:44.774Z,99003.16
2022-12-08T07:08:12.506Z,98996.94
2022-12-08T07:10:40.688Z,99000.53
2022-12-08T07:13:08.619Z,99003.16
2022-12-08T07:15:36.303Z,99000.53
2022-12-08T07:18:04.188Z,99009.38
2022-12-08T07:20:31.949Z,99009.38
2022-12-08T07:22:59.652Z,99016.34
2022-12-08T07:25:27.474Z,99012.75
2022-12-08T07:27:55.367Z,99015.38
2022-12-08T07:30:23.683Z,99007.50
2022-12-08T07:32:51.694Z,99010.22
2022-12-08T07:35:19.992Z,99011.06
2022-12-08T07:37:47.666Z,99012.75
2022-12-08T07:40:15.437Z,99006.63
2022-12-08T07:42:43.263Z,99003.16
2022-12-08T07:45:10.968Z,99012.13
2022-12-08T07:47:38.979Z,99008.66
2022-12-08T07:50:07.432Z,99011.28
2022-12-08T07:52:35.273Z,99002.53
2022-12-08T07:55:04.163Z,99016.56
2022-12-08T07:57:31.905Z,99007.72
2022-12-08T07:59:59.988Z,99020.88
2022-12-08T08:02:27.831Z,99016.56
2022-12-08T08:04:55.862Z,99013.94
2022-12-08T08:07:23.582Z,99016.44
2022-12-08T08:09:51.257Z,99012.13
2022-12-08T08:12:34.697Z,99016.56
2022-12-08T08:15:02.381Z,99009.47
2022-12-08T08:17:30.817Z,99015.69
2022-12-08T08:19:58.707Z,99019.28
2022-12-08T08:22:26.764Z,99013.16
2022-12-08T08:24:54.503Z,99016.56
2022-12-08T08:27:22.725Z,99014.84
2022-12-08T08:29:50.448Z,99009.56
2022-12-08T08:32:18.213Z,99017.59
2022-12-08T08:34:45.999Z,99017.59
2022-12-08T08:37:13.955Z,99025.38
2022-12-08T08:39:43.239Z,99018.44
2022-12-08T08:42:11.639Z,99014.03
2022-12-08T08:44:39.497Z,99011.38
2022-12-08T08:47:07.655Z,99014.84
2022-12-08T08:49:35.397Z,99014.84
2022-12-08T08:52:03.175Z,99017.69
2022-12-08T08:54:31.110Z,99020.34
2022-12-08T08:56:59.144Z,99019.47
2022-12-08T08:59:27.491Z,99023.06
2022-12-08T09:01:55.561Z,99028.31
2022-12-08T09:04:23.446Z,99029.19
2022-12-08T09:06:51.261Z,99029.19
2022-12-08T09:09:19.150Z,99023.91
2022-12-08T09:11:46.935Z,99023.06
2022-12-08T09:14:14.965Z,99017.78
2022-12-08T09:16:42.825Z,99023.91
2022-12-08T09:19:10.948Z,99021.19
2022-12-08T09:21:38.692Z,99022.09
2022-12-08T09:24:07.206Z,99019.47
2022-12-08T09:26:35.105Z,99019.38
2022-12-08T09:29:02.846Z,99022.00
2022-12-08T09:31:30.794Z,99013.16
2022-12-08T09:33:59.472Z,99025.38
2022-12-08T09:36:27.658Z,99027.91
2022-12-08T09:38:55.575Z,99023.50
2022-12-08T09:41:23.823Z,99025.19
2022-12-08T09:43:53.812Z,99017.28
2022-12-08T09:46:21.818Z,99023.38
2022-12-08T09:48:50.014Z,99029.50
2022-12-08T09:51:17.828Z,99034.78
2022-12-08T09:53:45.630Z,99026.00
2022-12-08T09:56:13.592Z,99034.03
2022-12-08T09:58:41.329Z,99022.75
2022-12-08T10:01:09.460Z,99035.91
2022-12-08T10:03:37.620Z,99032.44
2022-12-08T10:06:05.427Z,99022.88
2022-12-08T10:08:35.257Z,99022.00
2022-12-08T10:11:03.087Z,99025.59
2022-12-08T10:13:31.199Z,99024.66
2022-12-08T10:15:59.261Z,99025.38
2022-12-08T10:18:27.196Z,99013.94
2022-12-08T10:20:55.015Z,99012.22
2022-12-08T10:23:22.981Z,99022.66
2022-12-08T10:25:51.691Z,99011.28
2022-12-08T10:28:19.503Z,99019.19
2022-12-08T10:30:47.390Z,99015.06
2022-12-08T10:33:15.347Z,99006.44
2022-12-08T10:35:43.091Z,99010.22
2022-12-08T10:38:11.524Z,99013.78
2022-12-08T10:40:45.475Z,99014.00
2022-12-08T10:43:13.786Z,99008.75
2022-12-08T10:45:43.590Z,99013.38
2022-12-08T10:48:11.984Z,99007.25
2022-12-08T10:50:40.008Z,99000.53
2022-12-08T10:53:07.973Z,99013.78
2022-12-08T10:55:35.739Z,99005.16
2022-12-08T10:58:04.624Z,99003.56
2022-12-08T11:00:32.793Z,99000.19
2022-12-08T11:03:00.795Z,98999.34
2022-12-08T11:05:28.969Z,99003.56
2022-12-08T11:07:56.967Z,98997.25
2022-12-08T11:10:25.679Z,98998.06
2022-12-08T11:12:53.976Z,98995.44
2022-12-08T11:15:21.909Z,98992.81
2022-12-08T11:17:57.430Z,98989.34
2022-12-08T11:20:25.854Z,98991.22
2022-12-08T11:22:53.960Z,98990.41
2022-12-08T11:25:21.663Z,98981.47
2022-12-08T11:27:49.887Z,98978.69
2022-12-08T11:30:18.196Z,98983.00
2022-12-08T11:32:48.153Z,98981.97
2022-12-08T11:35:16.533Z,98973.88
2022-12-08T11:37:44.371Z,98975.47
2022-12-08T11:40:12.228Z,98981.56
2022-12-08T11:42:40.215Z,98969.88
2022-12-08T11:45:09.359Z,98976.72
2022-12-08T11:47:37.112Z,98977.56
2022-12-08T11:50:05.640Z,98972.31
2022-12-08T11:52:33.628Z,98965.34
2022-12-08T11:55:01.376Z,98968.94
2022-12-08T11:57:29.572Z,98968.81
2022-12-08T11:59:57.935Z,98972.41
2022-12-08T12:02:25.860Z,98962.81
2022-12-08T12:04:53.832Z,98967.25
2022-12-08T12:07:25.990Z,98967.34
2022-12-08T12:09:54.621Z,98967.44
2022-12-08T12:12:22.759Z,98968.50
2022-12-08T12:14:50.720Z,98967.13
2022-12-08T12:17:18.706Z,98964.81
2022-12-08T12:19:46.522Z,98971.13
2022-12-08T12:22:15.936Z,98961.63
2022-12-08T12:24:44.603Z,98966.16
2022-12-08T12:27:12.403Z,98963.44
2022-12-08T12:29:40.115Z,98960.81
2022-12-08T12:32:08.207Z,98959.94
2022-12-08T12:34:36.461Z,98959.94
2022-12-08T12:37:04.972Z,98958.81
2022-12-08T12:39:33.261Z,98962.19
2022-12-08T12:42:01.270Z,98956.91
2022-12-08T12:44:29.065Z,98953.31
2022-12-08T12:46:57.353Z,98949.56
2022-12-08T12:49:25.781Z,98950.19
2022-12-08T12:51:53.724Z,98941.03
2022-12-08T12:54:21.659Z,98945.13
2022-12-08T12:56:49.811Z,98953.56
2022-12-08T12:59:17.644Z,98942.69
2022-12-08T13:01:45.810Z,98943.44
2022-12-08T13:04:13.974Z,98943.34
2022-12-08T13:06:41.803Z,98939.75
2022-12-08T13:09:09.660Z,98939.03
2022-12-08T13:11:42.180Z,98938.16
2022-12-08T13:14:14.372Z,98934.59
2022-12-08T13:16:42.372Z,98944.50
2022-12-08T13:19:10.297Z,98941.13
2022-12-08T13:21:39.193Z,98945.97
2022-12-08T13:24:06.996Z,98939.03
2022-12-08T13:26:35.252Z,98930.41
2022-12-08T13:29:04.220Z,98937.22
2022-12-08T13:31:32.114Z,98934.59
2022-12-08T13:34:00.628Z,98941.56
2022-12-08T13:36:28.730Z,98936.06
2022-12-08T13:38:57.112Z,98929.75
2022-12-08T13:41:24.914Z,98925.22
2022-12-08T13:44:31.017Z,98931.22
2022-12-08T13:51:45.352Z,98933.22
2022-12-08T13:54:10.051Z,98931.75
2022-12-08T13:56:37.269Z,98938.38
2022-12-08T13:57:54.099Z,98941.66
2022-12-08T14:00:22.730Z,98945.84
2022-12-08T14:02:50.683Z,98943.97
2022-12-08T14:05:21.660Z,98943.28
2022-12-08T14:07:56.310Z,98948.81
2022-12-08T14:10:24.664Z,98957.72
2022-12-08T14:12:52.610Z,98952.50
2022-12-08T14:15:20.935Z,98957.72
2022-12-08T14:17:48.945Z,98958.50
2022-12-08T14:20:17.834Z,98951.19
2022-12-08T14:22:47.366Z,98952.44
2022-12-08T14:25:15.263Z,98952.72
2022-12-08T14:27:43.237Z,98952.16
2022-12-08T14:30:11.228Z,98953.09
2022-12-08T14:32:39.186Z,98962.94
2022-12-08T14:35:08.584Z,98970.16
2022-12-08T14:37:36.920Z,98972.16
2022-12-08T14:40:05.090Z,98960.16
2022-12-08T14:42:33.614Z,98962.66
2022-12-08T14:45:01.715Z,98966.91
2022-12-08T14:47:29.880Z,98960.63
2022-12-08T14:49:57.762Z,98950.75
2022-12-08T14:52:25.735Z,98951.63
2022-12-08T14:54:53.650Z,98959.50
2022-12-08T14:57:22.787Z,98954.25
2022-12-08T14:59:51.407Z,98960.31
2022-12-08T15:02:20.011Z,98968.19
2022-12-08T15:04:48.206Z,98964.63
2022-12-08T15:07:16.121Z,98959.50
2022-12-08T15:09:45.665Z,98958.56
2022-12-08T15:12:13.756Z,98959.50
2022-12-08T15:14:41.828Z,98954.97
2022-12-08T15:17:10.089Z,98954.97
2022-12-08T15:19:37.956Z,98952.28
2022-12-08T15:22:05.958Z,98954.03
2022-12-08T15:24:36.427Z,98960.03
2022-12-08T15:27:04.635Z,98955.63
2022-12-08T15:29:32.647Z,98964.25
2022-12-08T15:32:00.494Z,98963.22
2022-12-08T15:34:31.875Z,98969.22
2022-12-08T15:37:00.267Z,98957.59
2022-12-08T15:39:28.108Z,98968.00
2022-12-08T15:41:56.083Z,98966.22
2022-12-08T15:44:24.589Z,98971.38
2022-12-08T15:46:52.677Z,98966.13
2022-12-08T15:49:21.102Z,98964.31
2022-12-08T15:51:49.335Z,98964.22
2022-12-08T15:54:17.379Z,98967.72
2022-12-08T15:57:10.556Z,98956.44
2022-12-08T15:59:34.347Z,98957.38
2022-12-08T16:02:02.313Z,98965.38
2022-12-08T16:07:22.193Z,98961.81
2022-12-08T16:09:50.839Z,98968.75
2022-12-08T16:13:13.883Z,98967.81
2022-12-08T16:15:50.030Z,98958.13
2022-12-08T16:18:12.195Z,98959.72
2022-12-08T16:21:17.052Z,98963.19
2022-12-08T16:23:42.135Z,98960.56
2022-12-08T16:26:44.041Z,98959.63
2022-12-08T16:28:59.400Z,98962.16
2022-12-08T16:31:31.386Z,98962.03
2022-12-08T16:33:59.548Z,98955.88
2022-12-08T16:36:27.413Z,98955.88
2022-12-08T16:38:55.195Z,98963.56
2022-12-08T16:41:40.369Z,98961.66
2022-12-08T16:44:08.212Z,98958.94
2022-12-08T16:46:36.601Z,98958.88
2022-12-08T16:49:04.568Z,98967.47
2022-12-08T16:51:32.843Z,98960.34
2022-12-08T16:54:00.621Z,98953.19
2022-12-08T16:56:33.448Z,98956.66
2022-12-08T16:59:01.660Z,98948.69
2022-12-08T17:01:29.542Z,98959.22
2022-12-08T17:06:46.135Z,98955.72
2022-12-08T17:09:14.165Z,98960.16
2022-12-08T17:11:43.690Z,98956.66
2022-12-08T17:14:11.877Z,98961.06
2022-12-08T17:16:39.992Z,98966.31
2022-12-08T17:19:10.300Z,98961.06
2022-12-08T17:21:38.074Z,98961.06
2022-12-08T17:24:06.080Z,98957.72
2022-12-08T17:26:33.976Z,98960.25
2022-12-08T17:29:02.057Z,98960.25
2022-12-08T17:31:32.158Z,98960.16
2022-12-08T17:34:00.707Z,98960.16
2022-12-08T17:36:28.523Z,98954.59
2022-12-08T17:38:56.550Z,98957.88
2022-12-08T17:41:24.516Z,98962.06
2022-12-08T17:43:54.407Z,98951.47
2022-12-08T17:46:22.448Z,98954.09
2022-12-08T17:48:50.377Z,98950.50
2022-12-08T17:51:18.247Z,98952.19
2022-12-08T17:53:46.310Z,98958.31
2022-12-08T17:56:17.639Z,98949.56
2022-12-08T17:58:48.556Z,98951.47
2022-12-08T18:01:19.224Z,98948.00
2022-12-08T18:03:47.117Z,98949.78
2022-12-08T18:06:14.998Z,98952.50
2022-12-08T18:08:43.435Z,98944.72
2022-12-08T18:11:11.210Z,98937.88
2022-12-08T18:13:39.074Z,98945.78
2022-12-08T18:16:07.016Z,98941.47
2022-12-08T18:18:35.078Z,98934.31
2022-12-08T18:21:03.271Z,98941.97
2022-12-08T18:23:31.276Z,98939.06
2022-12-08T18:25:59.318Z,98943.19
2022-12-08T18:28:27.081Z,98943.91
2022-12-08T18:30:55.049Z,98934.13
2022-12-08T18:33:23.302Z,98941.84
2022-12-08T18:35:51.214Z,98945.22
2022-12-08T18:38:19.194Z,98931.97
2022-12-08T18:40:47.095Z,98927.53
2022-12-08T18:43:15.561Z,98929.97
2022-12-08T18:45:44.118Z,98927.34
2022-12-08T18:48:12.036Z,98930.72
2022-12-08T18:50:39.950Z,98929.69
2022-12-08T18:53:07.888Z,98940.94
2022-12-08T18:55:36.383Z,98932.94
2022-12-08T18:58:04.628Z,98942.53
2022-12-08T19:00:32.814Z,98935.34
2022-12-08T19:03:00.755Z,98945.78
2022-12-08T19:05:28.709Z,98950.00
2022-12-08T19:07:58.475Z,98942.94
2022-12-08T19:10:26.955Z,98942.84
2022-12-08T19:12:54.851Z,98946.22
2022-12-08T19:15:22.839Z,98944.44
2022-12-08T19:17:50.651Z,98942.53
2022-12-08T19:20:18.559Z,98948.66
2022-12-08T19:22:47.301Z,98946.75
2022-12-08T19:25:15.290Z,98943.19
2022-12-08T19:27:43.821Z,98948.34
2022-12-08T19:30:11.745Z,98946.53
2022-12-08T19:32:41.018Z,98951.72
2022-12-08T19:35:09.261Z,98949.94
2022-12-08T19:37:37.226Z,98962.88
2022-12-08T19:40:22.610Z,98958.47
2022-12-08T19:43:08.049Z,98959.28
2022-12-08T19:45:36.392Z,98957.41
2022-12-08T19:48:04.314Z,98959.00
2022-12-08T19:50:38.212Z,98957.94
2022-12-08T19:53:06.379Z,98960.56
2022-12-08T19:55:34.328Z,98952.69
2022-12-08T19:58:03.387Z,98956.03
2022-12-08T20:00:31.240Z,98952.59
2022-12-08T20:02:59.265Z,98952.47
2022-12-08T20:05:27.638Z,98953.31
2022-12-08T20:07:56.357Z,98948.91
2022-12-08T20:10:26.820Z,98952.38
2022-12-08T20:13:15.069Z,98951.53
2022-12-08T20:15:43.144Z,98951.53
2022-12-08T20:18:11.194Z,98965.53
2022-12-08T20:20:39.488Z,98966.38
2022-12-08T20:23:07.220Z,98972.59
2022-12-08T20:25:35.458Z,98973.81
2022-12-08T20:28:03.374Z,98966.63
2022-12-08T20:30:31.292Z,98958.72
2022-12-08T20:33:01.075Z,98967.13
2022-12-08T20:35:29.124Z,98967.53
2022-12-08T20:37:57.124Z,98972.16
2022-12-08T20:40:25.248Z,98967.09
2022-12-08T20:42:53.512Z,98971.72
2022-12-08T20:45:21.899Z,98972.75
2022-12-08T20:47:49.762Z,98979.03
2022-12-08T20:50:17.821Z,98981.13
2022-12-08T20:52:45.774Z,98979.44
2022-12-08T20:55:13.703Z,98984.91
2022-12-08T20:57:43.078Z,98991.19
2022-12-08T21:00:11.393Z,98988.78
2022-12-08T21:02:47.765Z,98981.44
2022-12-08T21:05:18.246Z,98983.63
2022-12-08T21:07:46.898Z,98986.56
2022-12-08T21:10:15.267Z,98984.22
2022-12-08T21:12:43.341Z,98980.09
2022-12-08T21:15:12.350Z,98982.84
2022-12-08T21:17:40.452Z,98974.28
2022-12-08T21:20:10.010Z,98985.53
2022-12-08T21:22:40.353Z,98987.22
2022-12-08T21:25:08.563Z,98986.66
2022-12-08T21:27:36.387Z,98988.91
2022-12-08T21:30:05.145Z,98991.09
2022-12-08T21:32:33.812Z,98992.22
2022-12-08T21:35:02.005Z,98992.22
2022-12-08T21:37:30.159Z,98988.94
2022-12-08T21:39:58.133Z,98981.06
2022-12-08T21:42:44.029Z,98987.06
2022-12-08T21:45:13.283Z,98986.88
2022-12-08T21:47:41.321Z,98994.59
2022-12-08T21:50:10.071Z,98988.38
2022-12-08T21:52:38.538Z,98982.94
2022-12-08T21:55:06.858Z,98983.66
2022-12-08T21:57:34.914Z,98987.81
2022-12-08T22:00:03.174Z,98985.91
2022-12-08T22:02:31.427Z,98984.03
2022-12-08T22:04:59.464Z,98982.34
2022-12-08T22:07:27.653Z,98987.72
2022-12-08T22:09:56.900Z,98980.88
2022-12-08T22:12:25.164Z,98990.53
2022-12-08T22:14:53.140Z,98996.81
2022-12-08T22:17:21.246Z,98986.50
2022-12-08T22:19:50.331Z,98984.16
2022-12-08T22:22:19.648Z,98983.41
2022-12-08T22:24:47.570Z,98989.50
2022-12-08T22:27:15.736Z,98989.41
2022-12-08T22:29:43.724Z,98989.22
2022-12-08T22:32:11.917Z,98984.63
2022-12-08T22:34:40.198Z,98990.53
2022-12-08T22:37:08.157Z,98984.97
2022-12-08T22:39:36.037Z,98983.88
2022-12-08T22:42:03.991Z,98982.72
2022-12-08T22:44:32.308Z,98984.22
2022-12-08T22:47:00.404Z,98984.22
2022-12-08T22:49:28.377Z,98987.88
2022-12-08T22:51:56.108Z,98982.72
2022-12-08T22:54:23.854Z,98986.41
2022-12-08T22:56:52.382Z,98983.94
2022-12-08T22:59:22.860Z,98990.22
2022-12-08T23:01:50.665Z,98990.44
2022-12-08T23:04:18.705Z,98985.09
2022-12-08T23:06:46.618Z,98976.28
2022-12-08T23:09:15.070Z,98971.84
2022-12-08T23:11:43.145Z,98975.31
2022-12-08T23:14:10.895Z,98971.03
2022-12-08T23:16:38.950Z,98972.69
2022-12-08T23:19:07.194Z,98976.28
2022-12-08T23:21:35.179Z,98977.09
2022-12-08T23:24:04.601Z,98976.94
2022-12-08T23:26:32.517Z,98975.03
2022-12-08T23:29:00.339Z,98979.25
2022-12-08T23:31:28.155Z,98977.56
2022-12-08T23:33:56.461Z,98973.16
2022-12-08T23:36:26.308Z,98972.19
2022-12-08T23:38:54.251Z,98978.22
2022-12-08T23:41:22.538Z,98980.84
2022-12-08T23:43:50.255Z,98975.47
2022-12-08T23:46:18.391Z,98976.34
2022-12-08T23:48:47.617Z,98970.13
2022-12-08T23:51:15.490Z,98971.09
2022-12-08T23:53:43.177Z,98970.22
2022-12-08T23:56:11.188Z,98972.03
2022-12-08T23:58:39.247Z,98969.41
